sensor_id;sensor_type;location;lat;lon;timestamp;P1;durP1;ratioP1;P2;durP2;ratioP2
69026;SDS011;56080;47.594;19.116;2023-03-03T00:04:53;28.10;;;16.30;;
69026;SDS011;56080;47.594;19.116;2023-03-03T00:14:53;28.90;;;15.90;;
69026;SDS011;56080;47.594;19.116;2023-03-03T00:24:54;29.20;;;17.20;;
69026;SDS011;56080;47.594;19.116;2023-03-03T00:34:54;24.80;;;16.20;;
69026;SDS011;56080;47.594;19.116;2023-03-03T00:44:56;27.70;;;15.40;;
69026;SDS011;56080;47.594;19.116;2023-03-03T00:54:54;30.60;;;18.80;;
69026;SDS011;56080;47.594;19.116;2023-03-03T01:04:58;29.20;;;15.40;;
69026;SDS011;56080;47.594;19.116;2023-03-03T01:14:55;27.90;;;16.10;;
69026;SDS011;56080;47.594;19.116;2023-03-03T01:24:54;24.90;;;15.50;;
69026;SDS011;56080;47.594;19.116;2023-03-03T01:34:55;29.30;;;17.20;;
69026;SDS011;56080;47.594;19.116;2023-03-03T01:55:00;30.70;;;16.90;;
69026;SDS011;56080;47.594;19.116;2023-03-03T02:04:55;27.80;;;16.80;;
69026;SDS011;56080;47.594;19.116;2023-03-03T02:14:55;30.40;;;17.20;;
69026;SDS011;56080;47.594;19.116;2023-03-03T02:25:02;29.40;;;17.10;;
69026;SDS011;56080;47.594;19.116;2023-03-03T02:34:58;33.60;;;18.70;;
69026;SDS011;56080;47.594;19.116;2023-03-03T02:44:55;35.00;;;19.80;;
69026;SDS011;56080;47.594;19.116;2023-03-03T02:54:55;30.90;;;17.90;;
69026;SDS011;56080;47.594;19.116;2023-03-03T03:04:55;29.80;;;16.50;;
69026;SDS011;56080;47.594;19.116;2023-03-03T03:14:55;24.60;;;14.70;;
69026;SDS011;56080;47.594;19.116;2023-03-03T03:24:55;34.20;;;17.30;;
69026;SDS011;56080;47.594;19.116;2023-03-03T03:34:56;29.00;;;16.80;;
69026;SDS011;56080;47.594;19.116;2023-03-03T03:44:55;32.60;;;16.90;;
69026;SDS011;56080;47.594;19.116;2023-03-03T03:54:56;29.20;;;15.90;;
69026;SDS011;56080;47.594;19.116;2023-03-03T04:04:56;31.50;;;18.20;;
69026;SDS011;56080;47.594;19.116;2023-03-03T04:14:56;31.90;;;17.30;;
69026;SDS011;56080;47.594;19.116;2023-03-03T04:24:57;34.50;;;18.90;;
69026;SDS011;56080;47.594;19.116;2023-03-03T04:35:01;35.60;;;20.30;;
69026;SDS011;56080;47.594;19.116;2023-03-03T04:44:56;32.10;;;19.70;;
69026;SDS011;56080;47.594;19.116;2023-03-03T04:54:56;33.60;;;19.50;;
69026;SDS011;56080;47.594;19.116;2023-03-03T05:04:56;32.60;;;19.80;;
69026;SDS011;56080;47.594;19.116;2023-03-03T05:14:56;32.40;;;19.70;;
69026;SDS011;56080;47.594;19.116;2023-03-03T05:24:58;30.30;;;18.50;;
69026;SDS011;56080;47.594;19.116;2023-03-03T05:34:56;31.50;;;19.30;;
69026;SDS011;56080;47.594;19.116;2023-03-03T05:44:56;29.60;;;17.90;;
69026;SDS011;56080;47.594;19.116;2023-03-03T05:54:56;26.70;;;17.10;;
69026;SDS011;56080;47.594;19.116;2023-03-03T06:04:56;29.90;;;18.00;;
69026;SDS011;56080;47.594;19.116;2023-03-03T06:14:56;32.10;;;19.90;;
69026;SDS011;56080;47.594;19.116;2023-03-03T06:24:57;41.30;;;24.40;;
69026;SDS011;56080;47.594;19.116;2023-03-03T06:34:58;28.30;;;17.60;;
69026;SDS011;56080;47.594;19.116;2023-03-03T06:44:57;32.70;;;18.90;;
69026;SDS011;56080;47.594;19.116;2023-03-03T06:54:58;32.50;;;19.50;;
69026;SDS011;56080;47.594;19.116;2023-03-03T07:04:57;34.40;;;19.50;;
69026;SDS011;56080;47.594;19.116;2023-03-03T07:24:59;28.60;;;17.80;;
69026;SDS011;56080;47.594;19.116;2023-03-03T07:34:58;36.20;;;20.00;;
69026;SDS011;56080;47.594;19.116;2023-03-03T07:44:59;30.20;;;18.10;;
69026;SDS011;56080;47.594;19.116;2023-03-03T07:54:59;27.50;;;16.90;;
69026;SDS011;56080;47.594;19.116;2023-03-03T08:05:01;32.10;;;20.20;;
69026;SDS011;56080;47.594;19.116;2023-03-03T08:15:11;32.70;;;20.00;;
69026;SDS011;56080;47.594;19.116;2023-03-03T08:24:58;35.10;;;21.10;;
69026;SDS011;56080;47.594;19.116;2023-03-03T08:34:58;34.30;;;21.90;;
69026;SDS011;56080;47.594;19.116;2023-03-03T08:44:59;42.80;;;25.60;;
69026;SDS011;56080;47.594;19.116;2023-03-03T08:54:59;39.30;;;24.10;;
69026;SDS011;56080;47.594;19.116;2023-03-03T09:05:00;43.60;;;27.20;;
69026;SDS011;56080;47.594;19.116;2023-03-03T09:15:23;41.30;;;27.60;;
69026;SDS011;56080;47.594;19.116;2023-03-03T09:25:13;42.90;;;26.40;;
69026;SDS011;56080;47.594;19.116;2023-03-03T09:35:24;38.20;;;25.80;;
69026;SDS011;56080;47.594;19.116;2023-03-03T09:45:17;35.80;;;24.00;;
69026;SDS011;56080;47.594;19.116;2023-03-03T10:25:24;22.60;;;13.60;;
69026;SDS011;56080;47.594;19.116;2023-03-03T11:25:26;10.60;;;6.50;;
69026;SDS011;56080;47.594;19.116;2023-03-03T11:35:25;11.90;;;7.30;;
69026;SDS011;56080;47.594;19.116;2023-03-03T11:45:24;11.50;;;5.70;;
69026;SDS011;56080;47.594;19.116;2023-03-03T11:55:29;11.80;;;6.40;;
69026;SDS011;56080;47.594;19.116;2023-03-03T12:35:30;9.60;;;5.50;;
69026;SDS011;56080;47.594;19.116;2023-03-03T13:15:31;10.30;;;6.80;;
69026;SDS011;56080;47.594;19.116;2023-03-03T13:35:29;8.80;;;5.10;;
69026;SDS011;56080;47.594;19.116;2023-03-03T13:45:42;10.30;;;6.10;;
69026;SDS011;56080;47.594;19.116;2023-03-03T13:55:48;12.00;;;7.80;;
69026;SDS011;56080;47.594;19.116;2023-03-03T14:15:41;12.50;;;8.40;;
69026;SDS011;56080;47.594;19.116;2023-03-03T14:25:48;15.20;;;9.40;;
69026;SDS011;56080;47.594;19.116;2023-03-03T14:45:42;11.90;;;7.70;;
69026;SDS011;56080;47.594;19.116;2023-03-03T14:55:40;11.50;;;7.00;;
69026;SDS011;56080;47.594;19.116;2023-03-03T15:05:33;12.30;;;7.30;;
69026;SDS011;56080;47.594;19.116;2023-03-03T15:15:33;12.00;;;7.90;;
69026;SDS011;56080;47.594;19.116;2023-03-03T15:35:51;13.40;;;8.30;;
69026;SDS011;56080;47.594;19.116;2023-03-03T15:45:48;13.80;;;8.30;;
69026;SDS011;56080;47.594;19.116;2023-03-03T15:55:51;11.30;;;7.30;;
69026;SDS011;56080;47.594;19.116;2023-03-03T16:05:53;12.10;;;7.50;;
69026;SDS011;56080;47.594;19.116;2023-03-03T16:35:43;14.20;;;8.70;;
69026;SDS011;56080;47.594;19.116;2023-03-03T16:45:43;17.30;;;10.70;;
69026;SDS011;56080;47.594;19.116;2023-03-03T16:55:57;16.10;;;10.10;;
69026;SDS011;56080;47.594;19.116;2023-03-03T17:15:56;17.30;;;10.70;;
69026;SDS011;56080;47.594;19.116;2023-03-03T17:25:49;19.40;;;11.20;;
69026;SDS011;56080;47.594;19.116;2023-03-03T17:36:00;22.20;;;12.60;;
69026;SDS011;56080;47.594;19.116;2023-03-03T17:45:48;18.70;;;11.60;;
69026;SDS011;56080;47.594;19.116;2023-03-03T17:56:00;20.90;;;12.40;;
69026;SDS011;56080;47.594;19.116;2023-03-03T18:06:00;22.90;;;13.50;;
69026;SDS011;56080;47.594;19.116;2023-03-03T18:25:58;27.30;;;17.00;;
69026;SDS011;56080;47.594;19.116;2023-03-03T18:35:49;25.10;;;15.70;;
69026;SDS011;56080;47.594;19.116;2023-03-03T18:45:53;24.60;;;14.60;;
69026;SDS011;56080;47.594;19.116;2023-03-03T19:05:58;29.90;;;17.40;;
69026;SDS011;56080;47.594;19.116;2023-03-03T19:15:54;26.90;;;16.10;;
69026;SDS011;56080;47.594;19.116;2023-03-03T19:36:20;23.90;;;15.00;;
69026;SDS011;56080;47.594;19.116;2023-03-03T19:46:06;25.20;;;15.40;;
69026;SDS011;56080;47.594;19.116;2023-03-03T20:06:07;26.00;;;15.10;;
69026;SDS011;56080;47.594;19.116;2023-03-03T20:16:09;26.70;;;15.30;;
69026;SDS011;56080;47.594;19.116;2023-03-03T20:25:59;23.90;;;13.90;;
69026;SDS011;56080;47.594;19.116;2023-03-03T21:06:07;31.10;;;17.80;;
69026;SDS011;56080;47.594;19.116;2023-03-03T21:25:59;28.40;;;15.90;;
69026;SDS011;56080;47.594;19.116;2023-03-03T21:36:06;30.80;;;18.40;;
69026;SDS011;56080;47.594;19.116;2023-03-03T21:45:56;31.80;;;17.50;;
69026;SDS011;56080;47.594;19.116;2023-03-03T21:55:58;34.80;;;18.30;;
69026;SDS011;56080;47.594;19.116;2023-03-03T22:05:58;30.80;;;18.90;;
69026;SDS011;56080;47.594;19.116;2023-03-03T22:15:57;34.90;;;19.50;;
69026;SDS011;56080;47.594;19.116;2023-03-03T22:25:57;34.50;;;19.60;;
69026;SDS011;56080;47.594;19.116;2023-03-03T22:35:57;31.40;;;19.00;;
69026;SDS011;56080;47.594;19.116;2023-03-03T22:45:57;36.10;;;20.40;;
69026;SDS011;56080;47.594;19.116;2023-03-03T22:55:57;44.40;;;22.70;;
69026;SDS011;56080;47.594;19.116;2023-03-03T23:06:00;36.20;;;21.60;;
69026;SDS011;56080;47.594;19.116;2023-03-03T23:15:57;34.60;;;20.30;;
69026;SDS011;56080;47.594;19.116;2023-03-03T23:25:57;34.10;;;19.70;;
69026;SDS011;56080;47.594;19.116;2023-03-03T23:35:58;38.40;;;21.30;;
69026;SDS011;56080;47.594;19.116;2023-03-03T23:45:58;38.50;;;22.50;;
69026;SDS011;56080;47.594;19.116;2023-03-03T23:55:59;40.90;;;22.00;;
